createdAt,value
2019-04-26T00:01:19.322Z,3.05
2019-04-26T00:03:50.178Z,3.08
2019-04-26T00:06:20.211Z,2.87
2019-04-26T00:08:57.438Z,2.55
2019-04-26T00:11:28.982Z,2.87
2019-04-26T00:14:00.629Z,3.33
2019-04-26T00:16:30.009Z,3.00
2019-04-26T00:18:59.684Z,3.40
2019-04-26T00:21:29.566Z,3.30
2019-04-26T00:23:59.411Z,3.00
2019-04-26T00:26:29.318Z,3.40
2019-04-26T00:28:58.946Z,3.15
2019-04-26T00:31:28.620Z,2.98
2019-04-26T00:33:58.288Z,2.90
2019-04-26T00:36:27.925Z,3.15
2019-04-26T00:38:57.523Z,3.42
2019-04-26T00:41:27.829Z,3.47
2019-04-26T00:43:58.118Z,3.22
2019-04-26T00:46:30.507Z,3.15
2019-04-26T00:49:04.809Z,3.08
2019-04-26T00:51:35.657Z,2.92
2019-04-26T00:54:06.289Z,3.20
2019-04-26T00:56:36.586Z,3.30
2019-04-26T00:59:08.780Z,3.05
2019-04-26T01:01:40.360Z,3.83
2019-04-26T01:04:10.112Z,3.17
2019-04-26T01:06:41.365Z,3.42
2019-04-26T01:09:11.083Z,3.33
2019-04-26T01:11:40.959Z,3.40
2019-04-26T01:14:10.572Z,3.00
2019-04-26T01:16:40.179Z,3.40
2019-04-26T01:19:14.015Z,3.45
2019-04-26T01:21:48.313Z,3.40
2019-04-26T01:24:21.858Z,2.98
2019-04-26T01:26:53.470Z,3.77
2019-04-26T01:29:26.022Z,3.15
2019-04-26T01:32:12.356Z,3.45
2019-04-26T01:34:44.669Z,3.40
2019-04-26T01:37:15.711Z,3.77
2019-04-26T01:39:51.514Z,3.10
2019-04-26T01:42:24.321Z,3.27
2019-04-26T01:47:29.007Z,3.17
2019-04-26T01:49:58.967Z,3.47
2019-04-26T01:52:29.677Z,3.67
2019-04-26T01:54:59.687Z,3.80
2019-04-26T01:57:31.561Z,3.62
2019-04-26T02:00:03.033Z,3.87
2019-04-26T02:02:34.345Z,3.87
2019-04-26T02:05:10.166Z,3.27
2019-04-26T02:07:40.484Z,3.60
2019-04-26T02:10:23.996Z,3.45
2019-04-26T02:12:55.741Z,3.77
2019-04-26T02:15:29.899Z,3.70
2019-04-26T02:18:01.385Z,3.40
2019-04-26T02:20:58.111Z,3.22
2019-04-26T02:23:47.815Z,3.17
2019-04-26T02:26:35.835Z,3.42
2019-04-26T02:29:12.879Z,3.20
2019-04-26T02:31:46.773Z,4.08
2019-04-26T02:34:16.602Z,3.67
2019-04-26T02:36:57.227Z,3.33
2019-04-26T02:39:27.441Z,3.95
2019-04-26T02:42:00.943Z,3.40
2019-04-26T02:44:41.123Z,3.60
2019-04-26T02:47:48.588Z,3.40
2019-04-26T02:50:39.062Z,3.42
2019-04-26T02:53:16.463Z,3.27
2019-04-26T02:56:02.052Z,3.70
2019-04-26T02:58:37.691Z,3.20
2019-04-26T03:01:09.173Z,3.15
2019-04-26T03:03:41.899Z,3.15
2019-04-26T03:09:11.043Z,3.50
2019-04-26T03:11:59.983Z,3.37
2019-04-26T03:14:31.234Z,3.58
2019-04-26T03:17:07.714Z,3.70
2019-04-26T03:20:14.797Z,3.30
2019-04-26T03:23:40.991Z,3.52
2019-04-26T03:26:21.854Z,3.25
2019-04-26T03:29:04.786Z,3.40
2019-04-26T03:32:07.491Z,3.90
2019-04-26T03:34:57.057Z,3.57
2019-04-26T03:37:59.360Z,3.17
2019-04-26T03:40:43.169Z,3.58
2019-04-26T03:43:52.242Z,3.87
2019-04-26T03:46:37.011Z,3.62
2019-04-26T03:49:45.661Z,3.12
2019-04-26T03:52:31.747Z,3.17
2019-04-26T03:55:22.430Z,3.75
2019-04-26T03:58:01.070Z,3.83
2019-04-26T04:00:34.940Z,3.87
2019-04-26T04:03:14.482Z,3.17
2019-04-26T04:05:53.440Z,3.45
2019-04-26T04:08:40.602Z,3.83
2019-04-26T04:11:23.810Z,3.83
2019-04-26T04:13:58.192Z,3.35
2019-04-26T04:16:55.313Z,3.72
2019-04-26T04:19:55.252Z,3.83
2019-04-26T04:22:29.416Z,3.80
2019-04-26T04:25:06.971Z,3.65
2019-04-26T04:28:04.836Z,4.33
2019-04-26T04:30:49.405Z,4.03
2019-04-26T04:33:26.369Z,3.62
2019-04-26T04:36:00.559Z,3.83
2019-04-26T04:38:34.829Z,3.80
2019-04-26T04:41:36.150Z,3.85
2019-04-26T04:45:02.747Z,3.62
2019-04-26T04:47:46.086Z,3.42
2019-04-26T04:50:36.034Z,3.83
2019-04-26T04:53:30.865Z,3.72
2019-04-26T04:56:23.323Z,3.65
2019-04-26T04:59:03.428Z,3.33
2019-04-26T05:01:57.302Z,3.50
2019-04-26T05:05:10.202Z,3.17
2019-04-26T05:08:06.810Z,3.90
2019-04-26T05:10:47.837Z,4.05
2019-04-26T05:13:33.726Z,3.40
2019-04-26T05:16:41.570Z,3.83
2019-04-26T05:19:30.665Z,3.90
2019-04-26T05:22:22.368Z,3.77
2019-04-26T05:25:40.101Z,4.15
2019-04-26T05:28:53.904Z,3.35
2019-04-26T05:32:04.445Z,3.52
2019-04-26T05:34:46.214Z,3.95
2019-04-26T05:37:45.080Z,3.87
2019-04-26T05:40:41.903Z,3.83
2019-04-26T05:43:37.965Z,3.80
2019-04-26T05:46:35.357Z,4.10
2019-04-26T05:49:50.440Z,3.67
2019-04-26T05:53:09.876Z,4.00
2019-04-26T05:56:26.244Z,3.45
2019-04-26T05:59:09.269Z,3.65
2019-04-26T06:02:06.821Z,3.90
2019-04-26T06:04:52.367Z,4.33
2019-04-26T06:07:58.429Z,4.40
2019-04-26T06:10:39.811Z,3.58
2019-04-26T06:13:19.709Z,3.47
2019-04-26T06:16:18.572Z,3.35
2019-04-26T06:19:12.185Z,3.70
2019-04-26T06:22:03.871Z,3.50
2019-04-26T06:25:00.423Z,3.77
2019-04-26T06:27:38.932Z,3.42
2019-04-26T06:30:19.828Z,3.98
2019-04-26T06:33:11.634Z,3.20
2019-04-26T06:35:46.858Z,3.60
2019-04-26T06:38:55.722Z,4.15
2019-04-26T06:42:07.485Z,3.45
2019-04-26T06:45:23.206Z,3.05
2019-04-26T06:48:28.751Z,3.87
2019-04-26T06:51:23.536Z,4.05
2019-04-26T06:54:19.186Z,4.35
2019-04-26T06:57:23.407Z,3.83
2019-04-26T07:00:25.123Z,3.77
2019-04-26T07:03:15.902Z,3.70
2019-04-26T07:05:50.212Z,3.33
2019-04-26T07:08:57.544Z,3.05
2019-04-26T07:11:52.419Z,3.50
2019-04-26T07:14:55.048Z,3.52
2019-04-26T07:17:44.727Z,3.45
2019-04-26T07:20:17.142Z,3.67
2019-04-26T07:23:21.138Z,3.40
2019-04-26T07:26:19.318Z,3.50
2019-04-26T07:29:29.822Z,3.85
2019-04-26T07:32:25.545Z,3.30
2019-04-26T07:35:10.479Z,3.87
2019-04-26T07:37:53.812Z,3.90
2019-04-26T07:41:05.142Z,3.77
2019-04-26T07:44:14.367Z,4.08
2019-04-26T07:47:09.517Z,3.42
2019-04-26T07:50:34.712Z,4.30
2019-04-26T07:53:25.168Z,4.10
2019-04-26T07:56:14.430Z,3.65
2019-04-26T07:59:30.913Z,3.70
2019-04-26T08:02:34.373Z,3.40
2019-04-26T08:05:11.520Z,3.50
2019-04-26T08:07:49.312Z,4.85
2019-04-26T08:10:23.663Z,3.77
2019-04-26T08:13:13.098Z,5.90
2019-04-26T08:16:00.457Z,6.30
2019-04-26T08:18:44.798Z,6.67
2019-04-26T08:21:26.232Z,7.00
2019-04-26T08:24:18.888Z,5.92
2019-04-26T08:27:18.800Z,5.72
2019-04-26T08:29:47.945Z,5.15
2019-04-26T08:32:28.133Z,4.97
2019-04-26T08:35:07.784Z,6.03
2019-04-26T08:37:50.750Z,6.45
2019-04-26T08:40:30.776Z,3.75
2019-04-26T08:43:10.954Z,4.87
2019-04-26T08:46:01.763Z,3.95
2019-04-26T08:48:38.369Z,2.85
2019-04-26T08:51:10.849Z,3.12
2019-04-26T08:53:44.303Z,2.92
2019-04-26T08:56:20.436Z,2.62
2019-04-26T08:58:54.634Z,2.52
2019-04-26T09:01:29.406Z,1.90
2019-04-26T09:04:04.958Z,1.95
2019-04-26T09:06:41.212Z,2.22
2019-04-26T09:09:14.317Z,2.75
2019-04-26T09:11:59.129Z,2.65
2019-04-26T09:14:24.614Z,2.42
2019-04-26T09:16:54.404Z,2.72
2019-04-26T09:19:26.133Z,2.72
2019-04-26T09:21:59.082Z,3.00
2019-04-26T09:24:45.967Z,3.37
2019-04-26T09:27:20.993Z,3.10
2019-04-26T09:29:55.270Z,3.10
2019-04-26T09:32:27.923Z,2.50
2019-04-26T09:34:57.932Z,2.83
2019-04-26T09:37:27.855Z,2.00
2019-04-26T09:40:09.539Z,2.50
2019-04-26T09:42:33.446Z,1.82
2019-04-26T09:45:04.986Z,1.82
2019-04-26T09:47:36.276Z,1.35
2019-04-26T09:50:26.678Z,1.32
2019-04-26T09:52:58.357Z,1.30
2019-04-26T09:55:35.156Z,1.30
2019-04-26T09:57:59.621Z,1.20
2019-04-26T10:00:30.877Z,1.00
2019-04-26T10:03:00.534Z,1.50
2019-04-26T10:05:30.276Z,1.05
2019-04-26T10:07:59.863Z,1.62
2019-04-26T10:10:30.992Z,1.30
2019-04-26T10:13:21.221Z,1.80
2019-04-26T10:15:52.536Z,1.55
2019-04-26T10:18:24.380Z,1.90
2019-04-26T10:20:53.631Z,1.57
2019-04-26T10:23:23.239Z,1.10
2019-04-26T10:25:53.622Z,1.40
2019-04-26T10:28:23.327Z,2.58
2019-04-26T10:30:53.047Z,2.08
2019-04-26T10:33:22.729Z,1.90
2019-04-26T10:35:56.251Z,2.20
2019-04-26T10:38:25.379Z,2.25
2019-04-26T10:40:55.446Z,1.72
2019-04-26T10:43:25.042Z,1.72
2019-04-26T10:45:55.059Z,2.10
2019-04-26T10:48:24.685Z,2.15
2019-04-26T10:50:54.456Z,1.72
2019-04-26T10:53:29.937Z,1.77
2019-04-26T10:58:41.188Z,2.15
2019-04-26T11:01:14.609Z,2.62
2019-04-26T11:03:44.281Z,2.00
2019-04-26T11:06:14.655Z,2.45
2019-04-26T11:08:44.524Z,2.20
2019-04-26T11:11:14.783Z,2.30
2019-04-26T11:13:44.403Z,1.30
2019-04-26T11:16:14.004Z,1.10
2019-04-26T11:18:43.615Z,1.57
2019-04-26T11:21:16.335Z,1.37
2019-04-26T11:23:45.482Z,1.32
2019-04-26T11:26:16.675Z,1.37
2019-04-26T11:28:46.347Z,1.32
2019-04-26T11:31:16.020Z,1.27
2019-04-26T11:33:49.502Z,1.25
2019-04-26T11:36:19.681Z,2.02
2019-04-26T11:38:49.292Z,2.55
2019-04-26T11:41:18.860Z,2.40
2019-04-26T11:43:49.013Z,2.65
2019-04-26T11:46:21.846Z,2.33
2019-04-26T11:48:58.866Z,2.05
2019-04-26T11:51:23.567Z,2.40
2019-04-26T11:53:53.797Z,1.87
2019-04-26T11:56:23.390Z,2.45
2019-04-26T11:58:56.766Z,2.37
2019-04-26T12:01:26.786Z,2.30
2019-04-26T12:04:14.176Z,2.53
2019-04-26T12:06:51.553Z,2.30
2019-04-26T12:09:41.104Z,2.30
2019-04-26T12:12:13.086Z,2.60
2019-04-26T12:14:42.920Z,3.42
2019-04-26T12:17:12.861Z,2.20
2019-04-26T12:19:42.884Z,2.50
2019-04-26T12:22:12.847Z,2.40
2019-04-26T12:24:42.630Z,2.30
2019-04-26T12:27:12.907Z,2.90
2019-04-26T12:29:44.221Z,2.70
2019-04-26T12:32:17.092Z,2.30
2019-04-26T12:34:45.903Z,2.37
2019-04-26T12:37:19.979Z,2.17
2019-04-26T12:39:46.856Z,2.12
2019-04-26T12:42:16.792Z,2.30
2019-04-26T12:44:48.334Z,1.67
2019-04-26T12:47:38.683Z,1.90
2019-04-26T12:50:09.507Z,2.10
2019-04-26T12:52:39.108Z,2.27
2019-04-26T12:55:08.982Z,2.27
2019-04-26T12:57:40.765Z,2.40
2019-04-26T13:00:11.992Z,2.80
2019-04-26T13:02:41.902Z,2.40
2019-04-26T13:05:14.538Z,2.65
2019-04-26T13:07:45.811Z,1.82
2019-04-26T13:10:17.076Z,2.00
2019-04-26T13:12:48.306Z,2.12
2019-04-26T13:15:56.072Z,2.00
2019-04-26T13:18:25.743Z,1.87
2019-04-26T13:20:58.502Z,1.90
2019-04-26T13:23:29.969Z,1.60
2019-04-26T13:25:59.685Z,0.90
2019-04-26T13:28:30.643Z,1.10
2019-04-26T13:31:02.267Z,0.80
2019-04-26T13:33:31.915Z,0.90
2019-04-26T13:36:03.143Z,0.80
2019-04-26T13:38:33.685Z,0.95
2019-04-26T13:41:04.608Z,0.62
2019-04-26T13:43:34.833Z,0.80
2019-04-26T13:46:22.507Z,0.72
2019-04-26T13:48:59.565Z,0.80
2019-04-26T13:51:39.423Z,0.80
2019-04-26T13:54:09.196Z,1.00
2019-04-26T13:56:40.318Z,0.90
2019-04-26T13:59:10.165Z,0.85
2019-04-26T14:01:40.420Z,1.00
2019-04-26T14:04:10.972Z,1.20
2019-04-26T14:06:40.901Z,0.50
2019-04-26T14:09:12.638Z,1.02
2019-04-26T14:11:42.327Z,1.10
2019-04-26T14:14:11.911Z,1.00
2019-04-26T14:16:41.995Z,0.85
2019-04-26T14:19:15.544Z,0.98
2019-04-26T14:21:43.377Z,1.10
2019-04-26T14:24:19.710Z,0.85
2019-04-26T14:26:53.208Z,0.88
2019-04-26T14:29:22.895Z,1.00
2019-04-26T14:31:53.174Z,0.90
2019-04-26T14:34:22.854Z,0.88
2019-04-26T14:37:05.546Z,1.07
2019-04-26T14:39:35.009Z,0.78
2019-04-26T14:41:56.909Z,0.90
2019-04-26T14:44:27.207Z,1.30
2019-04-26T14:46:57.951Z,1.07
2019-04-26T14:49:38.555Z,1.00
2019-04-26T14:51:59.257Z,0.80
2019-04-26T14:54:28.841Z,0.80
2019-04-26T14:56:59.730Z,1.32
2019-04-26T14:59:47.212Z,0.80
2019-04-26T15:02:34.896Z,0.90
2019-04-26T15:05:09.158Z,0.95
2019-04-26T15:07:48.614Z,1.02
2019-04-26T15:10:10.929Z,0.70
2019-04-26T15:12:46.910Z,0.70
2019-04-26T15:15:13.000Z,1.10
2019-04-26T15:17:42.637Z,0.98
2019-04-26T15:20:12.654Z,1.05
2019-04-26T15:22:48.334Z,0.80
2019-04-26T15:25:13.940Z,0.93
2019-04-26T15:27:44.495Z,0.93
2019-04-26T15:30:14.425Z,1.30
2019-04-26T15:32:44.040Z,1.22
2019-04-26T15:35:17.559Z,0.90
2019-04-26T15:37:45.227Z,1.00
2019-04-26T15:40:34.987Z,0.90
2019-04-26T15:43:14.423Z,1.25
2019-04-26T15:45:39.825Z,1.67
2019-04-26T15:48:32.155Z,1.80
2019-04-26T15:51:02.726Z,1.17
2019-04-26T15:53:33.175Z,1.35
2019-04-26T15:56:02.970Z,1.27
2019-04-26T15:58:32.587Z,1.75
2019-04-26T16:01:02.813Z,1.50
2019-04-26T16:03:32.849Z,1.50
2019-04-26T16:06:07.115Z,1.50
2019-04-26T16:08:42.400Z,1.42
2019-04-26T16:11:07.271Z,1.32
2019-04-26T16:13:36.502Z,1.50
2019-04-26T16:16:06.089Z,1.80
2019-04-26T16:18:35.761Z,1.40
2019-04-26T16:21:05.433Z,1.67
2019-04-26T16:23:41.309Z,2.00
2019-04-26T16:26:08.385Z,1.55
2019-04-26T16:28:44.392Z,1.27
2019-04-26T16:31:15.103Z,1.80
2019-04-26T16:33:46.438Z,1.17
2019-04-26T16:36:16.073Z,1.40
2019-04-26T16:38:48.650Z,1.67
2019-04-26T16:41:17.006Z,1.90
2019-04-26T16:43:53.214Z,1.40
2019-04-26T16:46:20.361Z,1.52
2019-04-26T16:48:49.847Z,1.67
2019-04-26T16:51:19.505Z,1.30
2019-04-26T16:54:03.682Z,1.10
2019-04-26T16:56:25.802Z,1.25
2019-04-26T16:58:54.955Z,1.25
2019-04-26T17:01:23.589Z,1.20
2019-04-26T17:03:53.627Z,1.15
2019-04-26T17:06:24.419Z,1.10
2019-04-26T17:09:00.862Z,1.17
2019-04-26T17:11:25.757Z,1.00
2019-04-26T17:13:56.956Z,1.42
2019-04-26T17:16:29.652Z,1.40
2019-04-26T17:18:59.483Z,1.10
2019-04-26T17:21:32.783Z,1.25
2019-04-26T17:24:24.108Z,1.20
2019-04-26T17:27:12.837Z,1.20
2019-04-26T17:29:42.328Z,1.37
2019-04-26T17:32:13.995Z,1.22
2019-04-26T17:34:44.049Z,1.20
2019-04-26T17:37:17.235Z,1.27
2019-04-26T17:39:47.622Z,1.10
2019-04-26T17:42:16.768Z,1.00
2019-04-26T17:44:46.363Z,0.90
2019-04-26T17:47:16.253Z,1.00
2019-04-26T17:49:45.844Z,0.82
2019-04-26T17:52:15.787Z,0.95
2019-04-26T17:54:49.397Z,0.75
2019-04-26T17:57:31.293Z,0.90
2019-04-26T17:59:51.306Z,0.80
2019-04-26T18:02:38.766Z,0.80
2019-04-26T18:05:00.259Z,0.82
2019-04-26T18:07:39.537Z,0.98
2019-04-26T18:09:56.985Z,1.00
2019-04-26T18:12:26.168Z,0.80
2019-04-26T18:14:55.765Z,0.80
2019-04-26T18:17:38.924Z,0.80
2019-04-26T18:20:12.928Z,0.80
2019-04-26T18:22:46.208Z,0.90
2019-04-26T18:25:15.937Z,0.80
2019-04-26T18:27:45.720Z,0.90
2019-04-26T18:30:15.881Z,0.90
2019-04-26T18:32:47.739Z,1.02
2019-04-26T18:35:17.071Z,0.70
2019-04-26T18:37:46.673Z,0.60
2019-04-26T18:40:16.472Z,0.50
2019-04-26T18:42:46.060Z,0.85
2019-04-26T18:45:21.269Z,0.80
2019-04-26T18:47:47.226Z,0.78
2019-04-26T18:50:18.636Z,0.90
2019-04-26T18:52:59.872Z,0.70
2019-04-26T18:55:31.236Z,0.80
2019-04-26T18:58:03.608Z,0.80
2019-04-26T19:00:40.770Z,0.80
2019-04-26T19:03:13.450Z,0.50
2019-04-26T19:05:43.491Z,0.70
2019-04-26T19:08:14.944Z,0.50
2019-04-26T19:10:44.935Z,0.78
2019-04-26T19:13:36.485Z,0.68
2019-04-26T19:16:10.628Z,0.70
2019-04-26T19:18:49.323Z,0.80
2019-04-26T19:21:26.903Z,0.70
2019-04-26T19:24:05.885Z,0.75
2019-04-26T19:26:33.828Z,0.68
2019-04-26T19:29:02.039Z,1.10
2019-04-26T19:31:32.294Z,0.75
2019-04-26T19:34:02.321Z,0.60
2019-04-26T19:36:32.923Z,0.68
2019-04-26T19:39:05.260Z,0.60
2019-04-26T19:41:35.239Z,0.70
2019-04-26T19:44:05.526Z,0.62
2019-04-26T19:46:42.585Z,0.70
2019-04-26T19:49:15.468Z,0.90
2019-04-26T19:51:48.641Z,0.90
2019-04-26T19:54:32.281Z,0.80
2019-04-26T19:57:01.039Z,0.78
2019-04-26T19:59:33.256Z,0.60
2019-04-26T20:02:01.764Z,1.20
2019-04-26T20:04:34.036Z,0.68
2019-04-26T20:07:03.966Z,0.65
2019-04-26T20:09:34.113Z,0.70
2019-04-26T20:12:04.383Z,0.98
2019-04-26T20:14:44.891Z,0.90
2019-04-26T20:17:06.493Z,0.80
2019-04-26T20:19:37.671Z,0.90
2019-04-26T20:22:07.996Z,0.88
2019-04-26T20:24:38.287Z,0.93
2019-04-26T20:27:08.951Z,0.62
2019-04-26T20:29:40.700Z,0.70
2019-04-26T20:32:28.540Z,0.60
2019-04-26T20:35:04.332Z,0.90
2019-04-26T20:37:34.561Z,0.80
2019-04-26T20:40:18.613Z,0.85
2019-04-26T20:42:39.618Z,0.80
2019-04-26T20:45:13.517Z,0.93
2019-04-26T20:47:41.738Z,1.10
2019-04-26T20:50:12.042Z,1.07
2019-04-26T20:52:45.306Z,0.80
2019-04-26T20:55:14.674Z,0.90
2019-04-26T20:57:44.930Z,1.00
2019-04-26T21:00:15.525Z,1.00
2019-04-26T21:02:45.134Z,1.22
2019-04-26T21:05:15.003Z,1.30
2019-04-26T21:07:49.225Z,1.27
2019-04-26T21:10:21.969Z,1.10
2019-04-26T21:12:51.329Z,1.17
2019-04-26T21:15:20.374Z,1.20
2019-04-26T21:17:51.775Z,0.90
2019-04-26T21:20:21.777Z,1.00
2019-04-26T21:22:52.374Z,1.10
2019-04-26T21:25:27.756Z,1.00
2019-04-26T21:27:57.928Z,1.55
2019-04-26T21:30:33.589Z,1.42
2019-04-26T21:33:23.997Z,1.22
2019-04-26T21:35:57.652Z,1.20
2019-04-26T21:38:40.369Z,1.12
2019-04-26T21:43:44.116Z,1.10
2019-04-26T21:46:18.675Z,1.20
2019-04-26T21:48:45.104Z,1.40
2019-04-26T21:51:16.221Z,1.42
2019-04-26T21:53:45.890Z,1.20
2019-04-26T21:56:15.815Z,1.42
2019-04-26T21:58:46.135Z,1.15
2019-04-26T22:01:20.395Z,1.32
2019-04-26T22:03:54.406Z,1.30
2019-04-26T22:06:25.098Z,1.15
2019-04-26T22:08:58.699Z,1.05
2019-04-26T22:11:25.890Z,1.32
2019-04-26T22:13:59.726Z,1.30
2019-04-26T22:16:45.856Z,1.30
2019-04-26T22:19:23.855Z,1.70
2019-04-26T22:21:59.358Z,1.22
2019-04-26T22:24:31.065Z,1.47
2019-04-26T22:27:00.684Z,1.30
2019-04-26T22:29:30.413Z,1.32
2019-04-26T22:32:00.081Z,1.02
2019-04-26T22:34:29.770Z,1.30
2019-04-26T22:37:01.805Z,1.70
2019-04-26T22:39:32.623Z,1.15
2019-04-26T22:42:02.681Z,1.27
2019-04-26T22:44:35.081Z,1.32
2019-04-26T22:47:06.618Z,1.25
2019-04-26T22:49:41.690Z,1.47
2019-04-26T22:52:11.190Z,1.70
2019-04-26T22:54:42.785Z,1.10
2019-04-26T22:57:13.087Z,1.30
2019-04-26T22:59:43.211Z,1.30
2019-04-26T23:02:18.424Z,1.70
2019-04-26T23:04:46.265Z,1.32
2019-04-26T23:07:18.423Z,1.30
2019-04-26T23:09:51.873Z,1.55
2019-04-26T23:12:27.886Z,1.32
2019-04-26T23:15:04.382Z,1.60
2019-04-26T23:17:44.854Z,1.70
2019-04-26T23:20:16.187Z,1.57
2019-04-26T23:22:45.792Z,1.60
2019-04-26T23:25:15.711Z,1.40
2019-04-26T23:27:45.316Z,1.40
2019-04-26T23:30:16.407Z,1.87
2019-04-26T23:32:48.510Z,1.67
2019-04-26T23:35:17.705Z,1.67
2019-04-26T23:37:47.743Z,1.92
2019-04-26T23:40:20.668Z,1.77
2019-04-26T23:42:51.595Z,3.08
2019-04-26T23:45:20.047Z,1.82
2019-04-26T23:47:49.938Z,2.17
2019-04-26T23:50:19.547Z,2.12
2019-04-26T23:52:50.401Z,1.98
2019-04-26T23:55:20.006Z,2.55
2019-04-26T23:57:49.680Z,1.85
